sensor_id;sensor_type;location;lat;lon;timestamp;temperature;humidity
21033;DHT22;10675;47.976;7.824;2023-08-01T00:02:22;21.50;99.90
21033;DHT22;10675;47.976;7.824;2023-08-01T00:04:47;21.40;99.90
21033;DHT22;10675;47.976;7.824;2023-08-01T00:07:13;21.30;99.90
21033;DHT22;10675;47.976;7.824;2023-08-01T00:09:38;21.30;99.90
21033;DHT22;10675;47.976;7.824;2023-08-01T00:12:04;21.30;99.50
21033;DHT22;10675;47.976;7.824;2023-08-01T00:14:30;21.30;99.40
21033;DHT22;10675;47.976;7.824;2023-08-01T00:16:55;21.30;99.80
21033;DHT22;10675;47.976;7.824;2023-08-01T00:19:21;21.20;99.90
21033;DHT22;10675;47.976;7.824;2023-08-01T00:21:46;21.10;99.90
21033;DHT22;10675;47.976;7.824;2023-08-01T00:24:12;21.00;99.90
21033;DHT22;10675;47.976;7.824;2023-08-01T00:26:38;20.90;99.90
21033;DHT22;10675;47.976;7.824;2023-08-01T00:29:03;21.00;99.90
21033;DHT22;10675;47.976;7.824;2023-08-01T00:31:29;21.00;99.90
21033;DHT22;10675;47.976;7.824;2023-08-01T00:33:54;20.90;99.90
21033;DHT22;10675;47.976;7.824;2023-08-01T00:36:20;20.70;99.90
21033;DHT22;10675;47.976;7.824;2023-08-01T00:38:45;20.70;99.90
21033;DHT22;10675;47.976;7.824;2023-08-01T00:41:11;20.50;99.90
21033;DHT22;10675;47.976;7.824;2023-08-01T00:43:36;20.40;99.90
21033;DHT22;10675;47.976;7.824;2023-08-01T00:46:06;20.60;99.90
21033;DHT22;10675;47.976;7.824;2023-08-01T00:48:33;20.50;99.90
21033;DHT22;10675;47.976;7.824;2023-08-01T00:51:06;20.50;99.90
21033;DHT22;10675;47.976;7.824;2023-08-01T00:53:32;20.40;99.90
21033;DHT22;10675;47.976;7.824;2023-08-01T00:55:58;20.60;99.90
21033;DHT22;10675;47.976;7.824;2023-08-01T00:58:25;20.60;99.90
21033;DHT22;10675;47.976;7.824;2023-08-01T01:00:50;20.50;99.90
21033;DHT22;10675;47.976;7.824;2023-08-01T01:03:17;20.60;99.90
21033;DHT22;10675;47.976;7.824;2023-08-01T01:05:49;20.50;99.90
21033;DHT22;10675;47.976;7.824;2023-08-01T01:08:18;20.50;99.90
21033;DHT22;10675;47.976;7.824;2023-08-01T01:10:43;20.60;99.90
21033;DHT22;10675;47.976;7.824;2023-08-01T01:13:09;20.60;99.90
21033;DHT22;10675;47.976;7.824;2023-08-01T01:15:34;20.80;99.90
21033;DHT22;10675;47.976;7.824;2023-08-01T01:18:00;20.90;99.90
21033;DHT22;10675;47.976;7.824;2023-08-01T01:20:25;21.00;99.90
21033;DHT22;10675;47.976;7.824;2023-08-01T01:22:52;21.10;99.90
21033;DHT22;10675;47.976;7.824;2023-08-01T01:25:20;21.00;99.90
21033;DHT22;10675;47.976;7.824;2023-08-01T01:27:49;21.00;99.90
21033;DHT22;10675;47.976;7.824;2023-08-01T01:30:15;21.10;99.90
21033;DHT22;10675;47.976;7.824;2023-08-01T01:32:41;21.10;99.90
21033;DHT22;10675;47.976;7.824;2023-08-01T01:35:07;21.10;99.90
21033;DHT22;10675;47.976;7.824;2023-08-01T01:37:32;21.20;99.60
21033;DHT22;10675;47.976;7.824;2023-08-01T01:39:58;21.20;99.70
21033;DHT22;10675;47.976;7.824;2023-08-01T01:42:24;21.20;99.60
21033;DHT22;10675;47.976;7.824;2023-08-01T01:44:49;21.20;99.30
21033;DHT22;10675;47.976;7.824;2023-08-01T01:47:15;21.20;99.30
21033;DHT22;10675;47.976;7.824;2023-08-01T01:49:40;21.40;98.60
21033;DHT22;10675;47.976;7.824;2023-08-01T01:52:06;21.40;98.10
21033;DHT22;10675;47.976;7.824;2023-08-01T01:54:31;21.50;97.60
21033;DHT22;10675;47.976;7.824;2023-08-01T01:56:57;21.50;97.50
21033;DHT22;10675;47.976;7.824;2023-08-01T01:59:22;21.50;96.70
21033;DHT22;10675;47.976;7.824;2023-08-01T02:01:48;21.60;96.40
21033;DHT22;10675;47.976;7.824;2023-08-01T02:04:13;21.50;96.80
21033;DHT22;10675;47.976;7.824;2023-08-01T02:06:39;21.50;96.80
21033;DHT22;10675;47.976;7.824;2023-08-01T02:09:04;21.50;96.90
21033;DHT22;10675;47.976;7.824;2023-08-01T02:11:30;21.50;97.10
21033;DHT22;10675;47.976;7.824;2023-08-01T02:13:56;21.40;97.10
21033;DHT22;10675;47.976;7.824;2023-08-01T02:16:21;21.40;97.10
21033;DHT22;10675;47.976;7.824;2023-08-01T02:18:47;21.40;97.60
21033;DHT22;10675;47.976;7.824;2023-08-01T02:21:12;21.40;97.60
21033;DHT22;10675;47.976;7.824;2023-08-01T02:23:38;21.40;97.40
21033;DHT22;10675;47.976;7.824;2023-08-01T02:26:04;21.40;97.10
21033;DHT22;10675;47.976;7.824;2023-08-01T02:28:29;21.40;97.40
21033;DHT22;10675;47.976;7.824;2023-08-01T02:30:55;21.40;97.10
21033;DHT22;10675;47.976;7.824;2023-08-01T02:33:20;21.40;97.30
21033;DHT22;10675;47.976;7.824;2023-08-01T02:35:46;21.40;97.30
21033;DHT22;10675;47.976;7.824;2023-08-01T02:38:12;21.40;97.20
21033;DHT22;10675;47.976;7.824;2023-08-01T02:40:37;21.40;97.30
21033;DHT22;10675;47.976;7.824;2023-08-01T02:43:03;21.40;97.30
21033;DHT22;10675;47.976;7.824;2023-08-01T02:45:29;21.40;97.40
21033;DHT22;10675;47.976;7.824;2023-08-01T02:47:54;21.40;97.30
21033;DHT22;10675;47.976;7.824;2023-08-01T02:50:20;21.30;97.50
21033;DHT22;10675;47.976;7.824;2023-08-01T02:52:45;21.30;97.60
21033;DHT22;10675;47.976;7.824;2023-08-01T02:55:11;21.30;97.70
21033;DHT22;10675;47.976;7.824;2023-08-01T02:57:37;21.30;97.70
21033;DHT22;10675;47.976;7.824;2023-08-01T03:00:02;21.30;98.10
21033;DHT22;10675;47.976;7.824;2023-08-01T03:02:31;21.20;98.00
21033;DHT22;10675;47.976;7.824;2023-08-01T03:04:56;21.20;98.00
21033;DHT22;10675;47.976;7.824;2023-08-01T03:07:22;21.20;97.90
21033;DHT22;10675;47.976;7.824;2023-08-01T03:09:47;21.20;98.10
21033;DHT22;10675;47.976;7.824;2023-08-01T03:12:13;21.20;98.30
21033;DHT22;10675;47.976;7.824;2023-08-01T03:14:38;21.20;98.30
21033;DHT22;10675;47.976;7.824;2023-08-01T03:17:06;21.10;98.30
21033;DHT22;10675;47.976;7.824;2023-08-01T03:19:33;21.20;98.30
21033;DHT22;10675;47.976;7.824;2023-08-01T03:22:00;21.10;98.60
21033;DHT22;10675;47.976;7.824;2023-08-01T03:24:25;21.10;98.70
21033;DHT22;10675;47.976;7.824;2023-08-01T03:26:51;21.00;99.30
21033;DHT22;10675;47.976;7.824;2023-08-01T03:29:16;20.90;99.80
21033;DHT22;10675;47.976;7.824;2023-08-01T03:31:42;20.80;99.90
21033;DHT22;10675;47.976;7.824;2023-08-01T03:34:07;20.70;99.90
21033;DHT22;10675;47.976;7.824;2023-08-01T03:36:34;20.60;99.90
21033;DHT22;10675;47.976;7.824;2023-08-01T03:39:00;20.50;99.90
21033;DHT22;10675;47.976;7.824;2023-08-01T03:41:25;20.50;99.90
21033;DHT22;10675;47.976;7.824;2023-08-01T03:43:51;20.50;99.90
21033;DHT22;10675;47.976;7.824;2023-08-01T03:46:16;20.40;99.90
21033;DHT22;10675;47.976;7.824;2023-08-01T03:48:42;20.30;99.90
21033;DHT22;10675;47.976;7.824;2023-08-01T03:51:08;20.30;99.90
21033;DHT22;10675;47.976;7.824;2023-08-01T03:53:34;20.30;99.90
21033;DHT22;10675;47.976;7.824;2023-08-01T03:55:59;20.30;99.90
21033;DHT22;10675;47.976;7.824;2023-08-01T03:58:25;20.20;99.90
21033;DHT22;10675;47.976;7.824;2023-08-01T04:00:50;20.20;99.90
21033;DHT22;10675;47.976;7.824;2023-08-01T04:03:16;20.20;99.90
21033;DHT22;10675;47.976;7.824;2023-08-01T04:05:41;20.20;99.90
21033;DHT22;10675;47.976;7.824;2023-08-01T04:08:07;20.20;99.90
21033;DHT22;10675;47.976;7.824;2023-08-01T04:10:32;20.20;99.90
21033;DHT22;10675;47.976;7.824;2023-08-01T04:12:58;20.10;99.90
21033;DHT22;10675;47.976;7.824;2023-08-01T04:15:23;19.90;99.90
21033;DHT22;10675;47.976;7.824;2023-08-01T04:17:49;19.70;99.90
21033;DHT22;10675;47.976;7.824;2023-08-01T04:20:14;19.60;99.90
21033;DHT22;10675;47.976;7.824;2023-08-01T04:22:40;19.40;99.90
21033;DHT22;10675;47.976;7.824;2023-08-01T04:25:06;19.30;99.90
21033;DHT22;10675;47.976;7.824;2023-08-01T04:27:31;19.30;99.90
21033;DHT22;10675;47.976;7.824;2023-08-01T04:29:57;19.10;99.90
21033;DHT22;10675;47.976;7.824;2023-08-01T04:32:23;19.10;99.90
21033;DHT22;10675;47.976;7.824;2023-08-01T04:34:49;19.10;99.90
21033;DHT22;10675;47.976;7.824;2023-08-01T04:37:14;19.10;99.90
21033;DHT22;10675;47.976;7.824;2023-08-01T04:39:40;19.10;99.90
21033;DHT22;10675;47.976;7.824;2023-08-01T04:42:05;19.00;99.90
21033;DHT22;10675;47.976;7.824;2023-08-01T04:44:31;19.00;99.90
21033;DHT22;10675;47.976;7.824;2023-08-01T04:46:57;18.90;99.90
21033;DHT22;10675;47.976;7.824;2023-08-01T04:49:22;18.80;99.90
21033;DHT22;10675;47.976;7.824;2023-08-01T04:51:50;18.80;99.90
21033;DHT22;10675;47.976;7.824;2023-08-01T04:54:16;18.70;99.90
21033;DHT22;10675;47.976;7.824;2023-08-01T04:56:41;18.70;99.90
21033;DHT22;10675;47.976;7.824;2023-08-01T04:59:07;18.70;99.90
21033;DHT22;10675;47.976;7.824;2023-08-01T05:01:33;18.50;99.90
21033;DHT22;10675;47.976;7.824;2023-08-01T05:03:58;18.40;99.90
21033;DHT22;10675;47.976;7.824;2023-08-01T05:06:24;18.30;99.90
21033;DHT22;10675;47.976;7.824;2023-08-01T05:08:49;18.10;99.90
21033;DHT22;10675;47.976;7.824;2023-08-01T05:11:15;17.90;99.90
21033;DHT22;10675;47.976;7.824;2023-08-01T05:13:40;17.80;99.90
21033;DHT22;10675;47.976;7.824;2023-08-01T05:16:06;17.70;99.90
21033;DHT22;10675;47.976;7.824;2023-08-01T05:18:31;17.70;99.90
21033;DHT22;10675;47.976;7.824;2023-08-01T05:20:57;17.70;99.90
21033;DHT22;10675;47.976;7.824;2023-08-01T05:23:22;17.60;99.90
21033;DHT22;10675;47.976;7.824;2023-08-01T05:25:48;17.70;99.90
21033;DHT22;10675;47.976;7.824;2023-08-01T05:28:13;17.70;99.90
21033;DHT22;10675;47.976;7.824;2023-08-01T05:30:40;17.80;99.90
21033;DHT22;10675;47.976;7.824;2023-08-01T05:33:06;17.80;99.90
21033;DHT22;10675;47.976;7.824;2023-08-01T05:35:31;17.70;99.90
21033;DHT22;10675;47.976;7.824;2023-08-01T05:37:57;17.80;99.90
21033;DHT22;10675;47.976;7.824;2023-08-01T05:40:22;17.80;99.90
21033;DHT22;10675;47.976;7.824;2023-08-01T05:42:48;17.80;99.90
21033;DHT22;10675;47.976;7.824;2023-08-01T05:45:13;17.90;99.90
21033;DHT22;10675;47.976;7.824;2023-08-01T05:47:39;17.80;99.90
21033;DHT22;10675;47.976;7.824;2023-08-01T05:50:06;17.80;99.90
21033;DHT22;10675;47.976;7.824;2023-08-01T05:52:33;17.90;99.90
21033;DHT22;10675;47.976;7.824;2023-08-01T05:54:58;18.00;99.90
21033;DHT22;10675;47.976;7.824;2023-08-01T05:57:24;18.00;99.90
21033;DHT22;10675;47.976;7.824;2023-08-01T05:59:50;18.00;99.90
21033;DHT22;10675;47.976;7.824;2023-08-01T06:02:16;18.00;99.90
21033;DHT22;10675;47.976;7.824;2023-08-01T06:04:41;18.10;99.90
21033;DHT22;10675;47.976;7.824;2023-08-01T06:07:07;18.20;99.90
21033;DHT22;10675;47.976;7.824;2023-08-01T06:09:33;18.10;99.90
21033;DHT22;10675;47.976;7.824;2023-08-01T06:11:59;18.10;99.90
21033;DHT22;10675;47.976;7.824;2023-08-01T06:14:24;18.20;99.90
21033;DHT22;10675;47.976;7.824;2023-08-01T06:16:50;18.20;99.90
21033;DHT22;10675;47.976;7.824;2023-08-01T06:19:15;18.00;99.90
21033;DHT22;10675;47.976;7.824;2023-08-01T06:21:41;17.80;99.90
21033;DHT22;10675;47.976;7.824;2023-08-01T06:24:06;17.60;99.90
21033;DHT22;10675;47.976;7.824;2023-08-01T06:26:33;17.50;99.90
21033;DHT22;10675;47.976;7.824;2023-08-01T06:28:59;17.60;99.90
21033;DHT22;10675;47.976;7.824;2023-08-01T06:31:24;17.60;99.90
21033;DHT22;10675;47.976;7.824;2023-08-01T06:33:50;17.60;99.90
21033;DHT22;10675;47.976;7.824;2023-08-01T06:36:15;17.60;99.90
21033;DHT22;10675;47.976;7.824;2023-08-01T06:38:43;17.60;99.90
21033;DHT22;10675;47.976;7.824;2023-08-01T06:41:08;17.60;99.90
21033;DHT22;10675;47.976;7.824;2023-08-01T06:43:34;17.70;99.90
21033;DHT22;10675;47.976;7.824;2023-08-01T06:45:59;17.70;99.90
21033;DHT22;10675;47.976;7.824;2023-08-01T06:48:25;17.70;99.90
21033;DHT22;10675;47.976;7.824;2023-08-01T06:50:51;17.70;99.90
21033;DHT22;10675;47.976;7.824;2023-08-01T06:53:16;17.70;99.90
21033;DHT22;10675;47.976;7.824;2023-08-01T06:55:42;17.70;99.90
21033;DHT22;10675;47.976;7.824;2023-08-01T06:58:07;18.10;99.90
21033;DHT22;10675;47.976;7.824;2023-08-01T07:00:33;18.40;99.90
21033;DHT22;10675;47.976;7.824;2023-08-01T07:02:58;18.90;99.90
21033;DHT22;10675;47.976;7.824;2023-08-01T07:05:24;18.70;99.90
21033;DHT22;10675;47.976;7.824;2023-08-01T07:07:50;18.80;99.90
21033;DHT22;10675;47.976;7.824;2023-08-01T07:10:15;18.90;99.90
21033;DHT22;10675;47.976;7.824;2023-08-01T07:12:41;19.00;99.90
21033;DHT22;10675;47.976;7.824;2023-08-01T07:15:07;18.90;99.90
21033;DHT22;10675;47.976;7.824;2023-08-01T07:17:33;18.70;99.90
21033;DHT22;10675;47.976;7.824;2023-08-01T07:19:58;18.60;99.90
21033;DHT22;10675;47.976;7.824;2023-08-01T07:22:24;18.50;99.90
21033;DHT22;10675;47.976;7.824;2023-08-01T07:24:53;18.60;99.90
21033;DHT22;10675;47.976;7.824;2023-08-01T07:27:19;18.60;99.90
21033;DHT22;10675;47.976;7.824;2023-08-01T07:29:45;18.70;99.90
21033;DHT22;10675;47.976;7.824;2023-08-01T07:32:10;18.80;99.90
21033;DHT22;10675;47.976;7.824;2023-08-01T07:34:36;19.00;99.90
21033;DHT22;10675;47.976;7.824;2023-08-01T07:37:01;18.70;99.90
21033;DHT22;10675;47.976;7.824;2023-08-01T07:39:27;18.60;99.90
21033;DHT22;10675;47.976;7.824;2023-08-01T07:41:52;18.60;99.90
21033;DHT22;10675;47.976;7.824;2023-08-01T07:44:18;18.50;99.90
21033;DHT22;10675;47.976;7.824;2023-08-01T07:46:43;18.30;99.90
21033;DHT22;10675;47.976;7.824;2023-08-01T07:49:09;18.10;99.90
21033;DHT22;10675;47.976;7.824;2023-08-01T07:51:34;17.90;99.90
21033;DHT22;10675;47.976;7.824;2023-08-01T07:54:01;17.80;99.90
21033;DHT22;10675;47.976;7.824;2023-08-01T07:56:27;17.70;99.90
21033;DHT22;10675;47.976;7.824;2023-08-01T07:58:52;17.70;99.90
21033;DHT22;10675;47.976;7.824;2023-08-01T08:01:18;17.90;99.90
21033;DHT22;10675;47.976;7.824;2023-08-01T08:03:43;18.10;99.90
21033;DHT22;10675;47.976;7.824;2023-08-01T08:06:09;18.10;99.90
21033;DHT22;10675;47.976;7.824;2023-08-01T08:08:34;18.10;99.90
21033;DHT22;10675;47.976;7.824;2023-08-01T08:11:02;17.90;99.90
21033;DHT22;10675;47.976;7.824;2023-08-01T08:13:27;18.10;99.90
21033;DHT22;10675;47.976;7.824;2023-08-01T08:15:55;18.50;99.90
21033;DHT22;10675;47.976;7.824;2023-08-01T08:18:27;18.00;99.90
21033;DHT22;10675;47.976;7.824;2023-08-01T08:20:53;17.80;99.90
21033;DHT22;10675;47.976;7.824;2023-08-01T08:23:18;17.80;99.90
21033;DHT22;10675;47.976;7.824;2023-08-01T08:25:44;17.70;99.90
21033;DHT22;10675;47.976;7.824;2023-08-01T08:28:12;17.90;99.90
21033;DHT22;10675;47.976;7.824;2023-08-01T08:30:38;18.20;99.90
21033;DHT22;10675;47.976;7.824;2023-08-01T08:33:04;18.20;99.90
21033;DHT22;10675;47.976;7.824;2023-08-01T08:35:32;18.00;99.90
21033;DHT22;10675;47.976;7.824;2023-08-01T08:38:01;18.10;99.90
21033;DHT22;10675;47.976;7.824;2023-08-01T08:40:27;18.20;99.90
21033;DHT22;10675;47.976;7.824;2023-08-01T08:42:53;18.20;99.90
21033;DHT22;10675;47.976;7.824;2023-08-01T08:45:20;18.40;99.90
21033;DHT22;10675;47.976;7.824;2023-08-01T08:47:51;18.30;99.90
21033;DHT22;10675;47.976;7.824;2023-08-01T08:50:18;18.20;99.90
21033;DHT22;10675;47.976;7.824;2023-08-01T08:52:45;18.20;99.90
21033;DHT22;10675;47.976;7.824;2023-08-01T08:55:11;18.10;99.90
21033;DHT22;10675;47.976;7.824;2023-08-01T08:57:37;18.20;99.90
21033;DHT22;10675;47.976;7.824;2023-08-01T09:00:05;18.40;99.90
21033;DHT22;10675;47.976;7.824;2023-08-01T09:02:32;18.40;99.90
21033;DHT22;10675;47.976;7.824;2023-08-01T09:04:59;18.40;99.90
21033;DHT22;10675;47.976;7.824;2023-08-01T09:07:29;18.50;99.90
21033;DHT22;10675;47.976;7.824;2023-08-01T09:09:55;18.40;99.90
21033;DHT22;10675;47.976;7.824;2023-08-01T09:12:21;18.50;99.90
21033;DHT22;10675;47.976;7.824;2023-08-01T09:14:48;18.50;99.90
21033;DHT22;10675;47.976;7.824;2023-08-01T09:17:15;18.60;99.90
21033;DHT22;10675;47.976;7.824;2023-08-01T09:19:43;18.70;99.90
21033;DHT22;10675;47.976;7.824;2023-08-01T09:22:14;18.80;99.90
21033;DHT22;10675;47.976;7.824;2023-08-01T09:24:50;18.80;99.90
21033;DHT22;10675;47.976;7.824;2023-08-01T09:27:16;19.00;99.90
21033;DHT22;10675;47.976;7.824;2023-08-01T09:29:41;19.10;99.90
21033;DHT22;10675;47.976;7.824;2023-08-01T09:32:14;19.10;99.90
21033;DHT22;10675;47.976;7.824;2023-08-01T09:34:40;19.10;99.90
21033;DHT22;10675;47.976;7.824;2023-08-01T09:37:06;19.10;99.90
21033;DHT22;10675;47.976;7.824;2023-08-01T09:39:33;19.10;99.90
21033;DHT22;10675;47.976;7.824;2023-08-01T09:42:01;19.10;99.90
21033;DHT22;10675;47.976;7.824;2023-08-01T09:44:28;19.20;99.90
21033;DHT22;10675;47.976;7.824;2023-08-01T09:47:00;19.10;99.90
21033;DHT22;10675;47.976;7.824;2023-08-01T09:49:27;19.30;99.90
21033;DHT22;10675;47.976;7.824;2023-08-01T09:51:54;19.30;99.90
21033;DHT22;10675;47.976;7.824;2023-08-01T09:54:20;19.40;99.90
21033;DHT22;10675;47.976;7.824;2023-08-01T09:56:49;19.50;99.90
21033;DHT22;10675;47.976;7.824;2023-08-01T09:59:21;19.60;99.90
21033;DHT22;10675;47.976;7.824;2023-08-01T10:01:48;19.90;99.90
21033;DHT22;10675;47.976;7.824;2023-08-01T10:04:20;19.80;99.90
21033;DHT22;10675;47.976;7.824;2023-08-01T10:06:49;19.90;99.90
21033;DHT22;10675;47.976;7.824;2023-08-01T10:09:17;19.90;99.90
21033;DHT22;10675;47.976;7.824;2023-08-01T10:11:43;19.80;99.90
21033;DHT22;10675;47.976;7.824;2023-08-01T10:14:09;19.70;99.90
21033;DHT22;10675;47.976;7.824;2023-08-01T10:16:36;19.70;99.90
21033;DHT22;10675;47.976;7.824;2023-08-01T10:19:02;19.70;99.90
21033;DHT22;10675;47.976;7.824;2023-08-01T10:21:31;19.80;99.90
21033;DHT22;10675;47.976;7.824;2023-08-01T10:23:58;19.90;99.90
21033;DHT22;10675;47.976;7.824;2023-08-01T10:26:24;19.90;99.90
21033;DHT22;10675;47.976;7.824;2023-08-01T10:28:51;20.00;99.90
21033;DHT22;10675;47.976;7.824;2023-08-01T10:31:19;19.90;99.90
21033;DHT22;10675;47.976;7.824;2023-08-01T10:33:48;19.80;99.90
21033;DHT22;10675;47.976;7.824;2023-08-01T10:38:52;20.20;99.90
21033;DHT22;10675;47.976;7.824;2023-08-01T10:41:19;20.30;99.90
21033;DHT22;10675;47.976;7.824;2023-08-01T10:43:44;20.60;99.90
21033;DHT22;10675;47.976;7.824;2023-08-01T10:46:10;20.80;99.90
21033;DHT22;10675;47.976;7.824;2023-08-01T10:48:47;20.90;99.90
21033;DHT22;10675;47.976;7.824;2023-08-01T10:51:12;21.60;99.90
21033;DHT22;10675;47.976;7.824;2023-08-01T10:53:38;20.70;99.90
21033;DHT22;10675;47.976;7.824;2023-08-01T10:56:04;20.80;99.90
21033;DHT22;10675;47.976;7.824;2023-08-01T10:58:30;20.80;99.90
21033;DHT22;10675;47.976;7.824;2023-08-01T11:00:59;20.70;99.90
21033;DHT22;10675;47.976;7.824;2023-08-01T11:03:38;21.00;99.90
21033;DHT22;10675;47.976;7.824;2023-08-01T11:06:04;20.60;99.90
21033;DHT22;10675;47.976;7.824;2023-08-01T11:08:37;20.80;99.90
21033;DHT22;10675;47.976;7.824;2023-08-01T11:11:05;21.10;99.90
21033;DHT22;10675;47.976;7.824;2023-08-01T11:13:31;21.20;99.90
21033;DHT22;10675;47.976;7.824;2023-08-01T11:16:01;21.40;99.90
21033;DHT22;10675;47.976;7.824;2023-08-01T11:18:26;21.60;99.90
21033;DHT22;10675;47.976;7.824;2023-08-01T11:20:52;21.60;99.90
21033;DHT22;10675;47.976;7.824;2023-08-01T11:23:17;21.80;99.90
21033;DHT22;10675;47.976;7.824;2023-08-01T11:25:44;22.00;99.90
21033;DHT22;10675;47.976;7.824;2023-08-01T11:28:13;21.90;99.90
21033;DHT22;10675;47.976;7.824;2023-08-01T11:30:40;22.30;99.90
21033;DHT22;10675;47.976;7.824;2023-08-01T11:33:20;22.50;99.90
21033;DHT22;10675;47.976;7.824;2023-08-01T11:35:53;22.40;99.90
21033;DHT22;10675;47.976;7.824;2023-08-01T11:38:22;21.80;99.90
21033;DHT22;10675;47.976;7.824;2023-08-01T11:40:49;22.00;99.90
21033;DHT22;10675;47.976;7.824;2023-08-01T11:43:15;22.40;99.90
21033;DHT22;10675;47.976;7.824;2023-08-01T11:45:49;22.20;99.90
21033;DHT22;10675;47.976;7.824;2023-08-01T11:48:15;22.20;99.90
21033;DHT22;10675;47.976;7.824;2023-08-01T11:50:43;22.20;99.90
21033;DHT22;10675;47.976;7.824;2023-08-01T11:53:20;21.90;99.90
21033;DHT22;10675;47.976;7.824;2023-08-01T11:55:47;22.00;99.90
21033;DHT22;10675;47.976;7.824;2023-08-01T11:58:13;21.90;99.90
21033;DHT22;10675;47.976;7.824;2023-08-01T12:00:40;21.70;99.90
21033;DHT22;10675;47.976;7.824;2023-08-01T12:03:09;21.90;99.90
21033;DHT22;10675;47.976;7.824;2023-08-01T12:05:42;21.50;99.90
21033;DHT22;10675;47.976;7.824;2023-08-01T12:08:14;21.50;99.90
21033;DHT22;10675;47.976;7.824;2023-08-01T12:10:42;21.40;99.90
21033;DHT22;10675;47.976;7.824;2023-08-01T12:13:21;21.70;99.90
21033;DHT22;10675;47.976;7.824;2023-08-01T12:15:51;22.10;99.90
21033;DHT22;10675;47.976;7.824;2023-08-01T12:20:47;22.40;99.90
21033;DHT22;10675;47.976;7.824;2023-08-01T12:23:12;22.40;99.90
21033;DHT22;10675;47.976;7.824;2023-08-01T12:25:38;22.60;99.90
21033;DHT22;10675;47.976;7.824;2023-08-01T12:28:03;22.40;99.90
21033;DHT22;10675;47.976;7.824;2023-08-01T12:30:29;22.60;99.90
21033;DHT22;10675;47.976;7.824;2023-08-01T12:32:54;22.90;99.90
21033;DHT22;10675;47.976;7.824;2023-08-01T12:35:20;23.10;99.90
21033;DHT22;10675;47.976;7.824;2023-08-01T12:37:45;23.20;99.90
21033;DHT22;10675;47.976;7.824;2023-08-01T12:40:11;23.30;99.90
21033;DHT22;10675;47.976;7.824;2023-08-01T12:42:36;23.40;99.90
21033;DHT22;10675;47.976;7.824;2023-08-01T12:45:02;23.70;99.90
21033;DHT22;10675;47.976;7.824;2023-08-01T12:47:28;23.90;99.90
21033;DHT22;10675;47.976;7.824;2023-08-01T12:49:54;23.90;99.90
21033;DHT22;10675;47.976;7.824;2023-08-01T12:52:24;24.20;99.90
21033;DHT22;10675;47.976;7.824;2023-08-01T12:54:52;24.10;98.40
21033;DHT22;10675;47.976;7.824;2023-08-01T12:57:17;23.80;97.80
21033;DHT22;10675;47.976;7.824;2023-08-01T12:59:43;23.70;98.80
21033;DHT22;10675;47.976;7.824;2023-08-01T13:02:09;24.20;98.80
21033;DHT22;10675;47.976;7.824;2023-08-01T13:04:35;24.40;97.50
21033;DHT22;10675;47.976;7.824;2023-08-01T13:07:00;23.80;97.80
21033;DHT22;10675;47.976;7.824;2023-08-01T13:09:26;24.10;98.10
21033;DHT22;10675;47.976;7.824;2023-08-01T13:11:51;24.50;97.10
21033;DHT22;10675;47.976;7.824;2023-08-01T13:14:17;24.10;97.70
21033;DHT22;10675;47.976;7.824;2023-08-01T13:16:43;23.80;97.70
21033;DHT22;10675;47.976;7.824;2023-08-01T13:19:08;23.70;99.00
21033;DHT22;10675;47.976;7.824;2023-08-01T13:21:34;23.90;99.40
21033;DHT22;10675;47.976;7.824;2023-08-01T13:24:00;23.80;98.00
21033;DHT22;10675;47.976;7.824;2023-08-01T13:26:30;23.50;98.50
21033;DHT22;10675;47.976;7.824;2023-08-01T13:28:57;23.10;99.00
21033;DHT22;10675;47.976;7.824;2023-08-01T13:31:22;22.50;99.90
21033;DHT22;10675;47.976;7.824;2023-08-01T13:33:48;22.20;99.90
21033;DHT22;10675;47.976;7.824;2023-08-01T13:36:13;21.80;99.90
21033;DHT22;10675;47.976;7.824;2023-08-01T13:38:39;21.60;99.90
21033;DHT22;10675;47.976;7.824;2023-08-01T13:41:04;21.50;99.90
21033;DHT22;10675;47.976;7.824;2023-08-01T13:43:31;21.60;99.90
21033;DHT22;10675;47.976;7.824;2023-08-01T13:45:57;21.60;99.90
21033;DHT22;10675;47.976;7.824;2023-08-01T13:48:22;21.70;99.90
21033;DHT22;10675;47.976;7.824;2023-08-01T13:50:48;21.70;99.90
21033;DHT22;10675;47.976;7.824;2023-08-01T13:53:13;21.70;99.90
21033;DHT22;10675;47.976;7.824;2023-08-01T13:55:39;21.90;99.90
21033;DHT22;10675;47.976;7.824;2023-08-01T13:58:05;22.20;99.90
21033;DHT22;10675;47.976;7.824;2023-08-01T14:00:32;22.30;99.90
21033;DHT22;10675;47.976;7.824;2023-08-01T14:02:57;22.80;99.90
21033;DHT22;10675;47.976;7.824;2023-08-01T14:05:27;23.80;99.90
21033;DHT22;10675;47.976;7.824;2023-08-01T14:07:53;24.00;99.90
21033;DHT22;10675;47.976;7.824;2023-08-01T14:10:19;24.00;99.90
21033;DHT22;10675;47.976;7.824;2023-08-01T14:12:44;24.30;99.90
21033;DHT22;10675;47.976;7.824;2023-08-01T14:15:10;24.30;99.90
21033;DHT22;10675;47.976;7.824;2023-08-01T14:17:38;23.80;99.90
21033;DHT22;10675;47.976;7.824;2023-08-01T14:20:04;24.00;99.90
21033;DHT22;10675;47.976;7.824;2023-08-01T14:22:30;24.10;99.90
21033;DHT22;10675;47.976;7.824;2023-08-01T14:24:55;23.80;99.90
21033;DHT22;10675;47.976;7.824;2023-08-01T14:27:21;23.70;99.90
21033;DHT22;10675;47.976;7.824;2023-08-01T14:29:47;23.70;99.90
21033;DHT22;10675;47.976;7.824;2023-08-01T14:32:12;23.70;99.90
21033;DHT22;10675;47.976;7.824;2023-08-01T14:34:38;23.60;99.90
21033;DHT22;10675;47.976;7.824;2023-08-01T14:37:04;23.50;99.90
21033;DHT22;10675;47.976;7.824;2023-08-01T14:39:29;23.70;99.90
21033;DHT22;10675;47.976;7.824;2023-08-01T14:41:55;23.60;99.90
21033;DHT22;10675;47.976;7.824;2023-08-01T14:44:21;23.50;99.90
21033;DHT22;10675;47.976;7.824;2023-08-01T14:46:46;23.20;99.70
21033;DHT22;10675;47.976;7.824;2023-08-01T14:49:12;23.40;99.70
21033;DHT22;10675;47.976;7.824;2023-08-01T14:51:38;23.30;99.90
21033;DHT22;10675;47.976;7.824;2023-08-01T14:54:03;22.90;99.90
21033;DHT22;10675;47.976;7.824;2023-08-01T14:56:29;22.70;99.90
21033;DHT22;10675;47.976;7.824;2023-08-01T14:58:55;22.60;99.90
21033;DHT22;10675;47.976;7.824;2023-08-01T15:01:21;22.40;99.90
21033;DHT22;10675;47.976;7.824;2023-08-01T15:03:46;22.40;99.90
21033;DHT22;10675;47.976;7.824;2023-08-01T15:06:12;22.40;99.90
21033;DHT22;10675;47.976;7.824;2023-08-01T15:08:40;22.30;99.90
21033;DHT22;10675;47.976;7.824;2023-08-01T15:11:07;22.40;99.90
21033;DHT22;10675;47.976;7.824;2023-08-01T15:13:33;22.50;99.90
21033;DHT22;10675;47.976;7.824;2023-08-01T15:15:59;22.50;99.90
21033;DHT22;10675;47.976;7.824;2023-08-01T15:18:25;22.50;99.90
21033;DHT22;10675;47.976;7.824;2023-08-01T15:20:51;22.50;99.90
21033;DHT22;10675;47.976;7.824;2023-08-01T15:23:16;22.40;99.90
21033;DHT22;10675;47.976;7.824;2023-08-01T15:25:51;22.40;99.90
21033;DHT22;10675;47.976;7.824;2023-08-01T15:28:17;22.40;99.90
21033;DHT22;10675;47.976;7.824;2023-08-01T15:30:43;22.30;99.90